Nearby METAR Reports

 

KSJC - San Jose, California, USA
Distance from station: NE 9mi, 14km
Updated: Thu, 29-Feb-2024 11:53pm PST
Mostly cloudy
Mostly cloudy
 Wind from ENE
Wind: ENE 3 mph , 6 km/h
Temperature: 55°F , 13°C
Dew Point: 52°F , 11°C
Humidity: 88%
Barometer: 30.01 inHg , 1016.3 hPa
Clouds: Mostly cloudy
Visibility: 10 miles , 16 km
Cloud details: Partly cloudy 4000 ft
Partly cloudy 5000 ft
Mostly cloudy 8000 ft
2024/03/01 07:53 KSJC 010753Z 06003KT 10SM SCT040 SCT050 BKN080 13/11 A3001 RMK AO2 SLP162 T01280106 402280094 $
KRHV - San Jose/Reid, California, USA
Distance from station: ENE 12mi, 19km
Updated: Thu, 29-Feb-2024 9:55pm PST
NOT Current
Mostly cloudy
Mostly cloudy
 Wind from E
Wind: E 5 mph , 7 km/h
Temperature: 52°F , 11°C
Dew Point: 50°F , 10°C
Humidity: 94%
Barometer: 30.03 inHg , 1016.9 hPa
Clouds: Mostly cloudy
Visibility: 10 miles , 16 km
Cloud details: Mostly cloudy 2500 ft
2024/03/01 05:55 KRHV 010555Z 09004KT 10SM BKN025 11/10 A3003 RMK LAST
 
KPAO - Palo Alto, California, USA
Distance from station: NNW 14mi, 23km
Updated: Thu, 29-Feb-2024 8:47pm PST
NOT Current
Mostly cloudy
Mostly cloudy
 Wind from S
Wind: S 6 mph , 9 km/h
Temperature: 52°F , 11°C
Dew Point: 48°F , 9°C
Humidity: 88%
Barometer: 30.02 inHg , 1016.6 hPa
Clouds: Mostly cloudy
Visibility: 10 miles , 16 km
Cloud details: Mostly cloudy 2400 ft
2024/03/01 04:47 KPAO 010447Z 19005KT 10SM BKN024 11/09 A3002 RMK LAST
KOAK - Oakland, California, USA
Distance from station: NNW 31mi, 50km
Updated: Thu, 29-Feb-2024 11:53pm PST
Overcast
Overcast
 Wind from SSW
Wind: SSW 13 mph , 20 km/h
Temperature: 54°F , 12°C
Dew Point: 52°F , 11°C
Humidity: 94%
Barometer: 30.00 inHg , 1015.9 hPa
Clouds: Overcast
Visibility: 10 miles , 16 km
Cloud details: Mostly cloudy 3000 ft
Overcast 4500 ft
2024/03/01 07:53 KOAK 010753Z 21011KT 10SM BKN030 OVC045 12/11 A3000 RMK AO2 RAB0654E39 SLP159 P0000 T01220106 401610094 $
 
KSQL - San Carlos Airpo, California, USA
Distance from station: NW 21mi, 34km
Updated: Thu, 29-Feb-2024 11:55pm PST
Overcast
Overcast
 Wind from SSE
Wind: SSE 8 mph , 13 km/h
Temperature: 54°F , 12°C
Dew Point: 50°F , 10°C
Humidity: 88%
Barometer: 30.01 inHg , 1016.3 hPa
Clouds: Overcast
Visibility: 10 miles , 16 km
Cloud details: Few Clouds 2400 ft
Mostly cloudy 3000 ft
Overcast 3700 ft
2024/03/01 07:55 KSQL 010755Z AUTO 15007KT 10SM FEW024 BKN030 OVC037 12/10 A3001 RMK AO2
KSFO - San Francisco, California, USA
Distance from station: NW 30mi, 49km
Updated: Thu, 29-Feb-2024 11:56pm PST
Overcast
Overcast
 Wind from SSW
Wind: SSW 9 mph , 15 km/h, Gust: 20 mph , 31 km/h
Temperature: 54°F , 12°C
Dew Point: 48°F , 9°C
Humidity: 82%
Barometer: 29.99 inHg , 1015.6 hPa
Clouds: Overcast
Visibility: 10 miles , 16 km
Cloud details: Few Clouds 2600 ft
Mostly cloudy 4500 ft
Overcast 7000 ft
2024/03/01 07:56 KSFO 010756Z 20008G17KT 10SM FEW026 BKN045 OVC070 12/09 A2999 RMK AO2 RAE56 SLP157 P0001 T01170089 401440100
 
KE16 - San Martin, California, USA
Distance from station: ESE 27mi, 43km
Updated: Thu, 29-Feb-2024 11:55pm PST
Mist, Overcast
Mist, Overcast
 Wind from S
Wind: S 5 mph , 7 km/h
Temperature: 52°F , 11°C
Dew Point: 52°F , 11°C
Humidity: 100%
Barometer: 30.04 inHg , 1017.3 hPa
Summary: Mist
Clouds: Overcast
Visibility: 3 miles , 5 km
Cloud details: Few Clouds 1000 ft
Overcast 2100 ft
2024/03/01 07:55 KE16 010755Z AUTO 17004KT 3SM BR FEW010 OVC021 11/11 A3004 RMK AO2 PWINO PNO
KWVI - Watsonville, California, USA
Distance from station: SSE 27mi, 44km
Updated: Thu, 29-Feb-2024 11:58pm PST
Light rain, Mist, Overcast
Light rain, Mist, Overcast
 Wind from WNW
Wind: WNW 3 mph , 6 km/h
Temperature: 52°F , 11°C
Dew Point: 52°F , 11°C
Humidity: 100%
Barometer: 30.04 inHg , 1017.3 hPa
Summary: Light rain, Mist
Clouds: Overcast
Visibility: 2 1/2 miles , 4 km
Cloud details: Few Clouds 800 ft
Overcast 1500 ft
2024/03/01 07:58 KWVI 010758Z AUTO 29003KT 2 1/2SM -RA BR FEW008 OVC015 11/11 A3004 RMK AO2 P0001 T01060106
 
KHAF - Half Moon Bay, California, USA
Distance from station: WNW 31mi, 50km
Updated: Thu, 29-Feb-2024 11:55pm PST
Overcast
Overcast
 Wind from SW
Wind: SW 14 mph , 22 km/h, Gust: 22 mph , 35 km/h
Temperature: 55°F , 13°C
Dew Point: 50°F , 10°C
Humidity: 82%
Barometer: 30.01 inHg , 1016.3 hPa
Clouds: Overcast
Visibility: 7 miles , 11 km
Cloud details: Few Clouds 2100 ft
Partly cloudy 2700 ft
Overcast 4400 ft
2024/03/01 07:55 KHAF 010755Z AUTO 23012G19KT 7SM FEW021 SCT027 OVC044 13/10 A3001 RMK AO2
KHWD - Hayward, California, USA
Distance from station: N 28mi, 44km
Updated: Thu, 29-Feb-2024 11:54pm PST
Overcast
Overcast
 Wind from SSE
Wind: SSE 10 mph , 17 km/h
Temperature: 55°F , 13°C
Dew Point: 48°F , 9°C
Humidity: 77%
Barometer: 30.00 inHg , 1015.9 hPa
Clouds: Overcast
Visibility: 10 miles , 16 km
Cloud details: Mostly cloudy 3100 ft
Overcast 3800 ft
2024/03/01 07:54 KHWD 010754Z AUTO 16009KT 10SM BKN031 OVC038 13/09 A3000 RMK AO2 SLP168 T01280089 401670106
 
KLVK - Livermore, California, USA
Distance from station: NNE 31mi, 51km
Updated: Thu, 29-Feb-2024 11:53pm PST
Overcast
Overcast
 Wind from SSW
Wind: SSW 7 mph , 11 km/h
Temperature: 52°F , 11°C
Dew Point: 46°F , 8°C
Humidity: 82%
Barometer: 29.99 inHg , 1015.6 hPa
Clouds: Overcast
Visibility: 10 miles , 16 km
Cloud details: Overcast 2600 ft
2024/03/01 07:53 KLVK 010753Z AUTO 21006KT 10SM OVC026 11/08 A2999 RMK AO2 SLP154 T01110083 401560067